Time;durP1;ratioP1;P1;durP2;ratioP2;P2;SDS_P1;SDS_P2;PMS_P1;PMS_P2;Temp;Humidity;BMP_temperature;BMP_pressure;BME280_temperature;BME280_humidity;BME280_pressure;Samples;Min_cycle;Max_cycle;Signal;HPM_P1;HPM_P2
2022/03/03 00:01:26;;;;;;;43.70;34.25;;;0.60;1.00;;;;;;6152448;23;20207;-84
2022/03/03 00:03:53;;;;;;;43.78;34.95;;;0.50;1.00;;;;;;6152086;23;20278;-85
2022/03/03 00:06:21;;;;;;;40.90;34.28;;;0.50;1.00;;;;;;6156231;23;20199;-86
2022/03/03 00:08:48;;;;;;;41.75;33.42;;;0.60;1.00;;;;;;6129389;23;20717;-86
2022/03/03 00:11:15;;;;;;;40.60;33.58;;;0.60;1.00;;;;;;6171351;23;20206;-86
2022/03/03 00:13:42;;;;;;;47.00;34.10;;;0.70;1.00;;;;;;6175237;23;20247;-85
2022/03/03 00:16:10;;;;;;;45.05;34.15;;;0.70;1.00;;;;;;6177585;23;20172;-86
2022/03/03 00:18:37;;;;;;;45.72;34.72;;;0.80;1.00;;;;;;6179023;23;20191;-84
2022/03/03 00:21:04;;;;;;;39.28;32.30;;;0.90;1.00;;;;;;6175518;23;20207;-84
2022/03/03 00:23:52;;;;;;;41.50;32.97;;;0.90;1.00;;;;;;6160049;23;20284;-86
2022/03/03 00:26:19;;;;;;;42.85;32.92;;;1.00;1.00;;;;;;6143226;23;20209;-86
2022/03/03 00:28:45;;;;;;;39.08;29.52;;;1.00;1.00;;;;;;6155301;23;20197;-85
2022/03/03 00:31:13;;;;;;;40.67;32.72;;;1.00;1.00;;;;;;6155558;23;20195;-84
2022/03/03 00:33:40;;;;;;;40.20;32.95;;;1.00;1.00;;;;;;6158386;23;21103;-85
2022/03/03 00:36:07;;;;;;;43.10;33.03;;;1.00;1.00;;;;;;6156960;23;20219;-84
2022/03/03 00:38:34;;;;;;;46.08;29.40;;;1.00;1.00;;;;;;6159417;23;20798;-85
2022/03/03 00:41:01;;;;;;;37.60;30.13;;;1.00;1.00;;;;;;6161781;23;20219;-85
2022/03/03 00:43:27;;;;;;;43.75;35.92;;;1.00;1.00;;;;;;6168144;23;20199;-85
2022/03/03 00:45:54;;;;;;;39.45;31.25;;;1.00;1.00;;;;;;6154070;23;20653;-85
2022/03/03 00:48:22;;;;;;;39.55;29.73;;;0.90;1.00;;;;;;6156321;23;20203;-85
2022/03/03 00:50:49;;;;;;;37.60;30.50;;;0.80;1.00;;;;;;6154155;23;20206;-86
2022/03/03 00:53:16;;;;;;;39.60;32.42;;;0.80;1.00;;;;;;6156576;23;20199;-85
2022/03/03 00:55:43;;;;;;;43.67;31.88;;;0.70;1.00;;;;;;6156222;23;20644;-86
2022/03/03 00:58:10;;;;;;;41.10;32.38;;;0.70;1.00;;;;;;6155551;23;20254;-85
2022/03/03 01:00:37;;;;;;;39.92;32.67;;;0.60;1.00;;;;;;6157785;23;20663;-85
2022/03/03 01:03:04;;;;;;;38.97;32.63;;;0.60;1.00;;;;;;6155609;23;20195;-85
2022/03/03 01:05:32;;;;;;;42.17;31.58;;;0.50;1.00;;;;;;6155378;23;20203;-86
2022/03/03 01:08:00;;;;;;;40.47;30.30;;;0.60;1.00;;;;;;6156135;23;20270;-86
2022/03/03 01:10:27;;;;;;;38.80;33.80;;;0.60;1.00;;;;;;6155776;23;20200;-86
2022/03/03 01:12:54;;;;;;;38.95;31.25;;;0.60;1.00;;;;;;6155551;23;20258;-87
2022/03/03 01:15:21;;;;;;;45.85;31.25;;;0.70;1.00;;;;;;6155992;23;20265;-87
2022/03/03 01:17:48;;;;;;;44.40;31.55;;;0.70;1.00;;;;;;6169163;23;20267;-86
2022/03/03 01:20:15;;;;;;;40.30;32.13;;;0.80;1.00;;;;;;6163024;23;20219;-86
2022/03/03 01:22:43;;;;;;;47.53;32.00;;;0.80;1.00;;;;;;6151331;23;20195;-86
2022/03/03 01:25:10;;;;;;;41.03;29.85;;;0.80;1.00;;;;;;6156006;23;20192;-86
2022/03/03 01:27:38;;;;;;;37.83;29.30;;;0.80;1.00;;;;;;6156421;23;20191;-87
2022/03/03 01:30:06;;;;;;;40.10;29.55;;;0.80;1.00;;;;;;6138679;23;20247;-86
2022/03/03 01:32:33;;;;;;;34.35;28.83;;;0.70;1.00;;;;;;6165558;23;21076;-86
2022/03/03 01:35:00;;;;;;;36.08;28.55;;;0.60;1.00;;;;;;6140606;23;20249;-86
2022/03/03 01:37:27;;;;;;;39.60;30.70;;;0.60;1.00;;;;;;6156121;23;20195;-85
2022/03/03 01:39:55;;;;;;;36.22;30.38;;;0.60;1.00;;;;;;6185467;23;20365;-85
2022/03/03 01:42:21;;;;;;;35.72;31.15;;;0.70;1.00;;;;;;6184756;23;20692;-86
2022/03/03 01:44:48;;;;;;;39.55;30.55;;;0.80;1.00;;;;;;6181000;23;20190;-86
2022/03/03 01:47:17;;;;;;;41.20;31.73;;;0.80;1.00;;;;;;6127795;23;20283;-86
2022/03/03 01:49:44;;;;;;;43.60;34.65;;;0.80;1.00;;;;;;6158622;23;20665;-85
2022/03/03 01:52:11;;;;;;;45.95;36.03;;;0.80;1.00;;;;;;6137163;23;20879;-87
2022/03/03 01:54:39;;;;;;;45.92;36.42;;;0.90;1.00;;;;;;6128898;23;20183;-87
2022/03/03 01:57:08;;;;;;;47.83;37.35;;;1.00;1.00;;;;;;6130015;23;20242;-87
2022/03/03 01:59:38;;;;;;;44.65;38.35;;;1.00;1.00;;;;;;6182228;23;20225;-85
2022/03/03 02:02:08;;;;;;;44.30;36.13;;;1.00;1.00;;;;;;6156328;23;20213;-87
2022/03/03 02:04:35;;;;;;;51.00;36.42;;;1.00;1.00;;;;;;6164539;23;20195;-87
2022/03/03 02:07:05;;;;;;;46.75;37.03;;;0.90;1.00;;;;;;6154188;23;20202;-87
2022/03/03 02:09:34;;;;;;;44.50;34.22;;;0.80;1.00;;;;;;6149565;23;20191;-88
2022/03/03 02:12:02;;;;;;;43.72;35.65;;;0.80;1.00;;;;;;6149298;23;20529;-85
2022/03/03 02:14:40;;;;;;;49.53;35.05;;;0.80;1.00;;;;;;6125053;23;20336;-86
2022/03/03 02:17:08;;;;;;;40.97;34.38;;;0.80;1.00;;;;;;6124000;23;20199;-86
2022/03/03 02:19:35;;;;;;;46.80;35.28;;;0.80;1.00;;;;;;6153534;23;20197;-87
2022/03/03 02:22:03;;;;;;;45.13;35.10;;;0.90;1.00;;;;;;6156603;23;20249;-85
2022/03/03 02:24:31;;;;;;;48.28;36.03;;;0.90;1.00;;;;;;6167256;23;20198;-86
2022/03/03 02:27:01;;;;;;;52.13;37.38;;;1.00;1.00;;;;;;6162941;23;20195;-86
2022/03/03 02:29:29;;;;;;;41.67;33.08;;;1.10;1.00;;;;;;6179183;23;20195;-86
2022/03/03 02:31:56;;;;;;;39.22;30.75;;;1.20;1.00;;;;;;6166011;23;20289;-86
2022/03/03 02:34:23;;;;;;;45.70;34.88;;;1.20;1.00;;;;;;6150767;23;20195;-86
2022/03/03 02:36:51;;;;;;;47.30;33.78;;;1.30;1.00;;;;;;6127593;23;20219;-86
2022/03/03 02:39:19;;;;;;;44.25;33.88;;;1.30;1.00;;;;;;6151736;23;20229;-86
2022/03/03 02:41:46;;;;;;;47.17;32.63;;;1.30;1.00;;;;;;6150183;23;20322;-84
2022/03/03 02:44:13;;;;;;;38.60;28.77;;;1.40;1.00;;;;;;6152894;23;20218;-85
2022/03/03 02:46:40;;;;;;;41.15;30.50;;;1.30;1.00;;;;;;6124892;23;20689;-85
2022/03/03 02:49:08;;;;;;;44.78;33.50;;;1.30;1.00;;;;;;6155023;23;20270;-84
2022/03/03 02:51:34;;;;;;;39.05;31.45;;;1.20;1.00;;;;;;6163910;23;20194;-85
2022/03/03 02:54:01;;;;;;;41.50;31.73;;;1.20;1.00;;;;;;6142791;23;20195;-85
2022/03/03 02:56:30;;;;;;;42.03;32.65;;;1.10;1.00;;;;;;6150140;23;20217;-85
2022/03/03 02:58:56;;;;;;;38.25;30.83;;;1.10;1.00;;;;;;6148123;23;20238;-85
2022/03/03 03:01:22;;;;;;;38.33;29.60;;;1.00;1.00;;;;;;6150962;23;20211;-86
2022/03/03 03:03:49;;;;;;;38.08;32.40;;;0.80;1.00;;;;;;6134097;23;21465;-86
2022/03/03 03:06:16;;;;;;;39.70;30.63;;;0.70;1.00;;;;;;6123739;23;20278;-85
2022/03/03 03:08:43;;;;;;;38.97;30.95;;;0.60;1.00;;;;;;6150193;23;20199;-87
2022/03/03 03:11:10;;;;;;;42.67;31.58;;;0.50;1.00;;;;;;6150270;23;20292;-87
2022/03/03 03:13:38;;;;;;;43.42;31.35;;;0.50;1.00;;;;;;6124763;23;20191;-86
2022/03/03 03:16:06;;;;;;;40.50;29.13;;;0.60;1.00;;;;;;6126508;23;20191;-86
2022/03/03 03:18:33;;;;;;;40.17;29.20;;;0.60;1.00;;;;;;6151105;23;20226;-87
2022/03/03 03:21:01;;;;;;;33.78;28.33;;;0.70;1.00;;;;;;6151677;23;20214;-86
2022/03/03 03:23:28;;;;;;;33.75;29.52;;;0.60;1.00;;;;;;6152310;23;20199;-85
2022/03/03 03:25:55;;;;;;;39.97;31.52;;;0.60;1.00;;;;;;6128443;23;20259;-86
2022/03/03 03:28:24;;;;;;;42.60;31.23;;;0.60;1.00;;;;;;6128546;23;20191;-85
2022/03/03 03:30:53;;;;;;;41.63;30.40;;;0.50;1.00;;;;;;6127747;23;20203;-86
2022/03/03 03:33:20;;;;;;;38.15;28.77;;;0.60;1.00;;;;;;6129859;23;20203;-86
2022/03/03 03:35:47;;;;;;;41.63;30.23;;;0.60;1.00;;;;;;6128479;23;20703;-86
2022/03/03 03:38:14;;;;;;;36.13;30.17;;;0.50;1.00;;;;;;6155440;23;20218;-84
2022/03/03 03:40:41;;;;;;;37.67;30.25;;;0.50;1.00;;;;;;6129398;23;20191;-85
2022/03/03 03:43:08;;;;;;;40.58;29.83;;;0.40;1.00;;;;;;6154149;23;20239;-85
2022/03/03 03:45:35;;;;;;;38.83;28.80;;;0.30;1.00;;;;;;6153984;23;20195;-85
2022/03/03 03:48:04;;;;;;;42.33;29.95;;;0.30;1.00;;;;;;6130149;23;20214;-84
2022/03/03 03:50:31;;;;;;;38.22;30.70;;;0.20;1.00;;;;;;6153574;23;20712;-85
2022/03/03 03:52:57;;;;;;;39.63;30.13;;;0.20;1.00;;;;;;6154057;23;20211;-86
2022/03/03 03:55:24;;;;;;;39.33;31.35;;;0.20;1.00;;;;;;6153897;23;20192;-85
2022/03/03 03:57:51;;;;;;;41.33;32.35;;;0.20;1.00;;;;;;6129497;23;20200;-86
2022/03/03 04:00:19;;;;;;;42.35;30.23;;;0.20;1.00;;;;;;6164282;23;20187;-85
2022/03/03 04:02:46;;;;;;;36.75;28.58;;;0.10;1.00;;;;;;6180961;23;20250;-84
2022/03/03 04:05:15;;;;;;;39.83;29.23;;;0.00;1.00;;;;;;6175986;23;20207;-85
2022/03/03 04:07:42;;;;;;;40.53;31.60;;;0.00;1.00;;;;;;6160465;23;20195;-85
2022/03/03 04:10:11;;;;;;;40.92;30.80;;;0.00;1.00;;;;;;6157134;23;20191;-84
2022/03/03 04:12:38;;;;;;;47.83;33.20;;;0.00;1.00;;;;;;6153321;23;20649;-85
2022/03/03 04:15:06;;;;;;;37.75;30.33;;;0.00;1.00;;;;;;6127466;23;20211;-84
2022/03/03 04:17:32;;;;;;;39.08;29.77;;;-0.10;1.00;;;;;;6155590;23;20192;-85
2022/03/03 04:19:59;;;;;;;42.88;31.70;;;-0.10;1.00;;;;;;6160338;23;20578;-85
2022/03/03 04:22:27;;;;;;;40.80;32.45;;;-0.10;1.00;;;;;;6143891;23;20245;-84
2022/03/03 04:24:54;;;;;;;40.35;34.38;;;0.00;1.00;;;;;;6172260;23;20757;-86
2022/03/03 04:27:21;;;;;;;44.22;33.30;;;0.00;1.00;;;;;;6178916;23;20230;-85
2022/03/03 04:29:48;;;;;;;48.03;31.85;;;0.00;1.00;;;;;;6147937;23;20194;-84
2022/03/03 04:32:15;;;;;;;38.15;30.90;;;0.10;1.00;;;;;;6147554;23;20187;-85
2022/03/03 04:34:42;;;;;;;45.40;31.88;;;0.10;1.00;;;;;;6163024;23;20238;-86
2022/03/03 04:37:09;;;;;;;38.92;30.15;;;0.10;1.00;;;;;;6136357;23;20955;-86
2022/03/03 04:39:37;;;;;;;42.13;32.55;;;0.20;1.00;;;;;;6141335;23;20202;-86
2022/03/03 04:42:05;;;;;;;43.47;33.20;;;0.10;1.00;;;;;;6155394;23;20222;-86
2022/03/03 04:44:32;;;;;;;40.28;31.98;;;0.10;1.00;;;;;;6153511;23;20731;-86
2022/03/03 04:46:59;;;;;;;43.05;32.47;;;0.10;1.00;;;;;;6128940;23;20666;-84
2022/03/03 04:49:27;;;;;;;45.60;34.28;;;0.20;1.00;;;;;;6133777;23;20574;-85
2022/03/03 04:51:57;;;;;;;40.50;32.78;;;0.10;1.00;;;;;;6160379;23;20198;-85
2022/03/03 04:54:23;;;;;;;40.47;32.33;;;0.10;1.00;;;;;;6131070;23;21091;-85
2022/03/03 04:56:54;;;;;;;37.22;27.90;;;0.10;1.00;;;;;;6159598;23;20222;-86
2022/03/03 04:59:23;;;;;;;33.50;27.00;;;0.10;1.00;;;;;;6158227;23;20278;-86
2022/03/03 05:01:51;;;;;;;36.83;25.77;;;0.10;1.00;;;;;;6131073;23;20221;-87
2022/03/03 05:04:18;;;;;;;38.08;27.10;;;0.00;1.00;;;;;;6135785;23;20302;-85
2022/03/03 05:06:46;;;;;;;37.08;24.85;;;0.00;1.00;;;;;;6164060;23;20227;-85
2022/03/03 05:09:13;;;;;;;34.70;26.20;;;0.00;1.00;;;;;;6162498;23;20283;-86
2022/03/03 05:11:41;;;;;;;37.13;25.42;;;0.00;1.00;;;;;;6146068;23;20228;-86
2022/03/03 05:14:10;;;;;;;53.42;26.77;;;0.00;1.00;;;;;;6167231;23;20936;-85
2022/03/03 05:16:40;;;;;;;36.88;24.38;;;0.00;1.00;;;;;;6178396;23;20329;-88
2022/03/03 05:19:09;;;;;;;30.92;23.27;;;0.00;1.00;;;;;;6141820;23;20226;-86
2022/03/03 05:21:37;;;;;;;33.13;24.33;;;0.10;1.00;;;;;;6137932;23;20207;-86
2022/03/03 05:24:05;;;;;;;32.88;24.70;;;0.00;1.00;;;;;;6166606;23;20187;-86
2022/03/03 05:26:32;;;;;;;35.92;25.33;;;0.00;1.00;;;;;;6169868;23;20206;-85
2022/03/03 05:28:59;;;;;;;33.70;23.90;;;0.00;1.00;;;;;;6154557;23;20206;-83
2022/03/03 05:31:28;;;;;;;39.75;25.23;;;0.00;1.00;;;;;;6180250;23;20179;-84
2022/03/03 05:33:56;;;;;;;34.92;24.70;;;0.00;1.00;;;;;;6180669;23;20195;-83
2022/03/03 05:39:11;;;;;;;30.40;23.80;;;0.00;1.00;;;;;;6150625;23;20206;-88
2022/03/03 05:41:38;;;;;;;39.03;26.90;;;0.00;1.00;;;;;;6142851;23;20207;-85
2022/03/03 05:44:07;;;;;;;42.45;27.13;;;0.00;1.00;;;;;;6170589;23;20191;-81
2022/03/03 05:46:38;;;;;;;39.83;25.70;;;0.00;1.00;;;;;;6170229;23;20191;-86
2022/03/03 05:49:07;;;;;;;31.02;23.60;;;0.00;1.00;;;;;;6167853;23;20179;-82
2022/03/03 05:51:34;;;;;;;35.60;24.17;;;0.00;1.00;;;;;;6164840;23;20850;-82
2022/03/03 05:54:03;;;;;;;37.20;25.58;;;0.00;1.00;;;;;;6163210;23;21061;-82
2022/03/03 05:56:33;;;;;;;29.42;24.13;;;0.00;1.00;;;;;;6169608;23;20274;-81
2022/03/03 05:59:06;;;;;;;34.35;25.25;;;0.00;1.00;;;;;;6163778;23;20198;-83
2022/03/03 06:01:41;;;;;;;32.35;24.05;;;0.00;1.00;;;;;;6152881;23;20167;-80
2022/03/03 06:04:10;;;;;;;29.13;23.63;;;0.00;1.00;;;;;;6158280;23;20344;-80
2022/03/03 06:06:38;;;;;;;39.78;25.70;;;0.00;1.00;;;;;;6156875;23;20176;-82
2022/03/03 06:09:13;;;;;;;36.28;25.55;;;0.00;1.00;;;;;;6184495;23;20174;-86
2022/03/03 06:11:54;;;;;;;32.50;25.27;;;0.00;1.00;;;;;;6182006;23;20179;-86
2022/03/03 06:14:27;;;;;;;39.15;23.90;;;0.10;1.00;;;;;;6172262;23;20242;-85
2022/03/03 06:16:57;;;;;;;31.20;22.75;;;0.10;1.00;;;;;;6161417;23;20187;-85
2022/03/03 06:19:25;;;;;;;32.85;22.38;;;0.10;1.00;;;;;;6164076;23;20195;-86
2022/03/03 06:21:53;;;;;;;35.10;24.60;;;0.10;1.00;;;;;;6139467;23;20270;-85
2022/03/03 06:24:20;;;;;;;34.35;23.55;;;0.10;1.00;;;;;;6150951;23;20191;-86
2022/03/03 06:27:16;;;;;;;28.90;23.20;;;0.10;1.00;;;;;;6186405;23;20202;-94
2022/03/03 06:29:45;;;;;;;28.73;22.92;;;0.20;1.00;;;;;;6160778;23;20188;-89
2022/03/03 06:32:17;;;;;;;33.05;22.98;;;0.10;1.00;;;;;;6184763;23;20195;-88
2022/03/03 06:34:48;;;;;;;33.47;22.55;;;0.20;1.00;;;;;;6159072;23;20255;-89
2022/03/03 06:37:15;;;;;;;33.65;23.35;;;0.20;1.00;;;;;;6184511;23;20183;-87
2022/03/03 06:39:47;;;;;;;31.60;24.40;;;0.20;1.00;;;;;;6161219;23;20190;-90
2022/03/03 06:42:15;;;;;;;31.55;26.25;;;0.20;1.00;;;;;;6160180;23;20203;-89
2022/03/03 06:44:54;;;;;;;36.95;26.00;;;0.20;1.00;;;;;;6177547;23;21617;-88
2022/03/03 06:47:26;;;;;;;34.95;23.92;;;0.20;1.00;;;;;;6144544;23;20517;-88
2022/03/03 06:49:56;;;;;;;35.78;26.17;;;0.20;1.00;;;;;;6168818;23;20238;-87
2022/03/03 06:52:27;;;;;;;33.97;24.45;;;0.30;1.00;;;;;;6169769;23;20207;-86
2022/03/03 06:55:01;;;;;;;38.25;27.92;;;0.30;1.00;;;;;;6170395;23;20191;-87
2022/03/03 06:57:32;;;;;;;35.85;28.13;;;0.30;1.00;;;;;;6140082;23;20201;-87
2022/03/03 07:00:02;;;;;;;44.63;29.63;;;0.40;1.00;;;;;;6166679;23;20203;-88
2022/03/03 07:02:31;;;;;;;39.70;29.02;;;0.30;1.00;;;;;;6165244;23;20219;-87
2022/03/03 07:05:03;;;;;;;47.95;30.38;;;0.30;1.00;;;;;;6142365;23;20227;-86
2022/03/03 07:07:33;;;;;;;45.03;32.15;;;0.40;1.00;;;;;;6164551;23;20195;-85
2022/03/03 07:10:05;;;;;;;46.78;30.60;;;0.50;1.00;;;;;;6167019;23;20251;-85
2022/03/03 07:12:35;;;;;;;54.47;36.60;;;0.50;1.00;;;;;;6136811;23;20277;-85
2022/03/03 07:15:03;;;;;;;44.35;31.95;;;0.60;1.00;;;;;;6138158;23;20938;-86
2022/03/03 07:17:47;;;;;;;51.60;32.28;;;0.60;1.00;;;;;;6163578;23;20218;-87
2022/03/03 07:20:18;;;;;;;48.67;32.35;;;0.60;1.00;;;;;;6168149;23;20179;-89
2022/03/03 07:23:02;;;;;;;54.00;33.97;;;0.60;1.00;;;;;;6165480;23;20221;-87
2022/03/03 07:25:41;;;;;;;49.83;32.75;;;0.70;1.00;;;;;;6136563;23;20246;-87
2022/03/03 07:28:14;;;;;;;54.53;34.40;;;0.70;1.00;;;;;;6139479;23;20206;-86
2022/03/03 07:30:43;;;;;;;53.30;34.17;;;0.80;1.00;;;;;;6169523;23;20198;-87
2022/03/03 07:33:20;;;;;;;52.67;35.22;;;0.80;1.00;;;;;;6168209;23;20207;-87
2022/03/03 07:35:58;;;;;;;51.80;33.17;;;0.80;1.00;;;;;;6176039;23;20187;-93
2022/03/03 07:38:28;;;;;;;55.15;33.60;;;0.80;1.00;;;;;;6140355;23;20301;-86
2022/03/03 07:40:59;;;;;;;54.85;35.33;;;0.80;1.00;;;;;;6138336;23;20816;-85
2022/03/03 07:43:26;;;;;;;53.08;34.20;;;0.90;1.00;;;;;;6163610;23;21059;-85
2022/03/03 07:45:53;;;;;;;53.35;34.88;;;1.00;1.00;;;;;;6167172;23;20195;-85
2022/03/03 07:48:24;;;;;;;58.90;36.25;;;1.00;1.00;;;;;;6136139;23;20203;-86
2022/03/03 07:50:53;;;;;;;58.20;36.00;;;1.20;1.00;;;;;;6159931;23;20282;-83
2022/03/03 07:53:25;;;;;;;52.33;33.25;;;1.20;1.00;;;;;;6159072;23;20226;-82
2022/03/03 07:56:00;;;;;;;52.22;33.28;;;1.20;1.00;;;;;;6158953;23;20191;-82
2022/03/03 07:58:29;;;;;;;51.35;30.58;;;1.30;1.00;;;;;;6125139;23;20198;-82
2022/03/03 08:00:59;;;;;;;54.78;33.05;;;1.40;1.00;;;;;;6154363;23;20685;-82
2022/03/03 08:03:32;;;;;;;54.92;31.60;;;1.40;1.00;;;;;;6157957;23;20199;-85
2022/03/03 08:06:02;;;;;;;54.65;31.80;;;1.50;1.00;;;;;;6134889;23;20220;-84
2022/03/03 08:08:31;;;;;;;45.58;29.65;;;1.50;1.00;;;;;;6135150;23;20187;-80
2022/03/03 08:11:00;;;;;;;48.65;32.90;;;1.50;1.00;;;;;;6159011;23;20209;-81
2022/03/03 08:13:29;;;;;;;52.17;31.75;;;1.50;1.00;;;;;;6159030;23;20361;-81
2022/03/03 08:15:57;;;;;;;47.33;31.75;;;1.50;1.00;;;;;;6163108;23;20195;-81
2022/03/03 08:18:29;;;;;;;53.63;31.98;;;1.60;1.00;;;;;;6134818;23;20199;-80
2022/03/03 08:21:00;;;;;;;49.00;31.10;;;1.60;1.00;;;;;;6159331;23;21629;-81
2022/03/03 08:23:27;;;;;;;54.40;34.28;;;1.60;1.00;;;;;;6140927;23;20198;-81
2022/03/03 08:25:56;;;;;;;45.67;32.50;;;1.60;1.00;;;;;;6180365;23;20186;-80
2022/03/03 08:28:26;;;;;;;47.55;30.65;;;1.60;1.00;;;;;;6180306;23;20239;-81
2022/03/03 08:30:59;;;;;;;50.42;31.33;;;1.70;1.00;;;;;;6138483;23;20223;-81
2022/03/03 08:33:36;;;;;;;46.90;29.20;;;1.70;1.00;;;;;;6139987;23;20206;-81
2022/03/03 08:36:09;;;;;;;41.45;27.02;;;1.80;1.00;;;;;;6135493;23;20191;-81
2022/03/03 08:38:39;;;;;;;44.00;29.60;;;1.90;1.00;;;;;;6164140;23;20278;-81
2022/03/03 08:41:07;;;;;;;49.38;30.83;;;1.80;1.00;;;;;;6164985;23;20210;-80
2022/03/03 08:43:34;;;;;;;49.83;28.85;;;1.90;1.00;;;;;;6137499;23;20287;-81
2022/03/03 08:46:03;;;;;;;47.15;30.83;;;1.90;1.00;;;;;;6156014;23;20677;-80
2022/03/03 08:48:32;;;;;;;44.92;28.10;;;2.00;1.00;;;;;;6154511;23;20190;-81
2022/03/03 08:51:00;;;;;;;42.42;27.25;;;1.90;1.00;;;;;;6138238;23;20196;-81
2022/03/03 08:53:29;;;;;;;45.28;28.75;;;2.10;1.00;;;;;;6141435;23;20272;-85
2022/03/03 08:55:58;;;;;;;49.33;29.20;;;2.00;1.00;;;;;;6148641;23;20182;-81
2022/03/03 08:58:25;;;;;;;49.65;28.40;;;2.10;1.00;;;;;;6123305;23;20179;-83
2022/03/03 09:00:53;;;;;;;40.03;26.33;;;2.20;1.00;;;;;;6138884;23;20199;-82
2022/03/03 09:03:22;;;;;;;43.50;27.42;;;2.20;1.00;;;;;;6105002;23;20219;-82
2022/03/03 09:05:50;;;;;;;37.53;24.60;;;2.20;1.00;;;;;;6131834;23;20251;-81
2022/03/03 09:08:17;;;;;;;39.88;26.80;;;2.30;1.00;;;;;;6131409;23;20202;-82
2022/03/03 09:10:45;;;;;;;46.22;26.15;;;2.30;1.00;;;;;;6143683;23;20244;-84
2022/03/03 09:13:13;;;;;;;45.72;28.27;;;2.20;1.00;;;;;;6132479;23;20200;-83
2022/03/03 09:15:40;;;;;;;34.85;24.25;;;2.30;1.00;;;;;;6106456;23;20200;-83
2022/03/03 09:18:07;;;;;;;39.38;26.15;;;2.40;1.00;;;;;;6131593;23;20247;-84
2022/03/03 09:20:36;;;;;;;38.85;24.60;;;2.40;1.00;;;;;;6129169;23;20303;-82
2022/03/03 09:23:04;;;;;;;35.20;23.20;;;2.50;1.00;;;;;;6107849;23;20211;-83
2022/03/03 09:25:36;;;;;;;39.53;22.35;;;2.50;1.00;;;;;;6108716;23;21453;-83
2022/03/03 09:28:09;;;;;;;39.22;24.88;;;2.50;1.00;;;;;;6107916;23;20220;-83
2022/03/03 09:30:38;;;;;;;45.67;26.48;;;2.50;1.00;;;;;;6135437;23;20286;-82
2022/03/03 09:33:06;;;;;;;35.15;23.58;;;2.50;1.00;;;;;;6143575;23;20212;-82
2022/03/03 09:35:33;;;;;;;37.70;23.42;;;2.60;1.00;;;;;;6130334;23;20188;-84
2022/03/03 09:38:01;;;;;;;42.35;25.85;;;2.70;1.00;;;;;;6157779;23;20419;-85
2022/03/03 09:40:28;;;;;;;39.97;24.65;;;2.60;1.00;;;;;;6155838;23;20259;-85
2022/03/03 09:43:02;;;;;;;35.63;22.27;;;2.70;1.00;;;;;;6127978;23;20569;-85
2022/03/03 09:45:38;;;;;;;33.80;23.00;;;2.70;1.00;;;;;;6134083;23;20291;-86
2022/03/03 09:48:07;;;;;;;37.13;23.15;;;2.80;1.00;;;;;;6132874;23;20199;-87
2022/03/03 09:50:37;;;;;;;34.13;22.58;;;2.80;1.00;;;;;;6132625;23;20220;-85
2022/03/03 09:53:08;;;;;;;37.55;22.50;;;2.90;1.00;;;;;;6106391;23;20263;-86
2022/03/03 09:55:37;;;;;;;33.92;21.45;;;3.10;1.00;;;;;;6109547;23;20764;-84
2022/03/03 09:58:06;;;;;;;38.55;23.48;;;3.20;1.00;;;;;;6103589;23;20200;-83
2022/03/03 10:00:37;;;;;;;37.85;21.55;;;3.30;1.00;;;;;;6105973;23;20211;-86
2022/03/03 10:03:13;;;;;;;32.50;20.33;;;3.30;1.00;;;;;;6136482;23;20216;-88
2022/03/03 10:06:00;;;;;;;33.50;20.58;;;3.40;1.00;;;;;;6110247;23;20195;-86
2022/03/03 10:08:41;;;;;;;32.63;20.45;;;3.40;1.00;;;;;;6141206;23;20192;-86
2022/03/03 10:11:09;;;;;;;28.35;20.67;;;3.40;1.00;;;;;;6109025;23;20200;-86
2022/03/03 10:13:47;;;;;;;34.47;19.77;;;3.50;1.00;;;;;;6108936;23;20204;-85
2022/03/03 10:16:34;;;;;;;32.42;18.50;;;3.50;1.00;;;;;;6151669;23;20182;-80
2022/03/03 10:19:06;;;;;;;26.02;16.38;;;3.70;1.00;;;;;;6128972;23;20180;-78
2022/03/03 10:21:41;;;;;;;35.00;16.77;;;3.70;1.00;;;;;;6153407;23;20184;-80
2022/03/03 10:24:19;;;;;;;26.63;15.45;;;3.80;1.00;;;;;;6151657;23;20219;-81
2022/03/03 10:26:47;;;;;;;32.38;18.67;;;3.80;1.00;;;;;;6132322;23;20192;-83
2022/03/03 10:29:18;;;;;;;30.10;16.33;;;3.80;1.00;;;;;;6128485;23;20870;-84
2022/03/03 10:31:48;;;;;;;26.65;14.60;;;3.90;1.00;;;;;;6104919;23;20220;-82
2022/03/03 10:34:20;;;;;;;28.98;16.00;;;3.80;1.00;;;;;;6128385;23;20290;-83
2022/03/03 10:37:01;;;;;;;27.63;14.68;;;3.90;1.00;;;;;;6102711;23;20220;-85
2022/03/03 10:39:42;;;;;;;24.35;14.93;;;3.90;1.00;;;;;;6133150;23;20184;-84
2022/03/03 10:42:14;;;;;;;28.35;15.25;;;3.90;1.00;;;;;;6118508;23;20199;-84
2022/03/03 10:44:41;;;;;;;30.67;15.60;;;3.90;1.00;;;;;;6152734;23;20191;-83
2022/03/03 10:47:12;;;;;;;29.83;15.60;;;3.90;1.00;;;;;;6141436;23;20264;-86
2022/03/03 10:49:41;;;;;;;26.05;15.55;;;3.80;1.00;;;;;;6154580;23;20188;-88
2022/03/03 10:52:14;;;;;;;25.75;15.40;;;3.80;1.00;;;;;;6153993;23;20199;-79
2022/03/03 10:54:52;;;;;;;26.73;14.52;;;3.80;1.00;;;;;;6131586;23;20199;-86
2022/03/03 10:58:03;;;;;;;22.27;15.07;;;3.80;1.00;;;;;;6135046;23;20641;-89
2022/03/03 11:00:35;;;;;;;21.60;13.68;;;3.90;1.00;;;;;;6074085;23;20763;-83
2022/03/03 11:03:06;;;;;;;23.23;12.68;;;3.90;1.00;;;;;;6129397;23;20202;-84
2022/03/03 11:05:36;;;;;;;22.35;12.73;;;3.90;1.00;;;;;;6130529;23;20199;-86
2022/03/03 11:08:02;;;;;;;18.15;11.70;;;3.90;1.00;;;;;;6104458;23;20196;-85
2022/03/03 11:10:32;;;;;;;23.13;13.25;;;3.90;1.00;;;;;;6107137;23;20199;-85
2022/03/03 11:12:59;;;;;;;19.65;12.55;;;3.90;1.00;;;;;;6140637;23;20195;-85
2022/03/03 11:15:28;;;;;;;24.00;12.30;;;4.00;1.00;;;;;;6128225;23;20176;-85
2022/03/03 11:17:55;;;;;;;21.77;12.95;;;3.90;1.00;;;;;;6154341;23;20199;-85
2022/03/03 11:20:24;;;;;;;22.42;14.05;;;4.00;1.00;;;;;;6128827;23;20192;-85
2022/03/03 11:22:56;;;;;;;22.10;11.85;;;3.90;1.00;;;;;;6153898;23;20195;-85
2022/03/03 11:25:30;;;;;;;20.77;12.45;;;4.00;1.00;;;;;;6153895;23;20195;-84
2022/03/03 11:28:03;;;;;;;18.73;11.38;;;3.90;1.00;;;;;;6127655;23;20195;-85
2022/03/03 11:30:30;;;;;;;22.23;12.40;;;3.80;1.00;;;;;;6138515;23;20282;-85
2022/03/03 11:33:21;;;;;;;21.63;13.10;;;3.80;1.00;;;;;;6110458;23;20215;-85
2022/03/03 11:35:52;;;;;;;16.65;10.43;;;3.80;1.00;;;;;;6133514;23;20200;-85
2022/03/03 11:38:27;;;;;;;19.73;11.27;;;3.90;1.00;;;;;;6129066;23;20243;-86
2022/03/03 11:40:57;;;;;;;23.50;12.18;;;3.90;1.00;;;;;;6123135;23;20191;-84
2022/03/03 11:43:25;;;;;;;18.05;10.80;;;4.00;1.00;;;;;;6125432;23;20260;-85
2022/03/03 11:45:54;;;;;;;23.60;13.95;;;3.90;1.00;;;;;;6122277;23;20202;-83
2022/03/03 11:48:22;;;;;;;22.02;12.23;;;4.00;1.00;;;;;;6101419;23;20195;-85
2022/03/03 11:50:52;;;;;;;21.83;12.13;;;4.10;1.00;;;;;;6121372;23;20211;-85
2022/03/03 11:53:22;;;;;;;24.85;14.30;;;4.20;1.00;;;;;;6128073;23;20268;-85
2022/03/03 11:55:52;;;;;;;17.15;11.20;;;4.20;1.00;;;;;;6090195;23;20258;-84
2022/03/03 11:58:24;;;;;;;17.65;11.48;;;4.10;1.00;;;;;;6101672;23;20195;-85
2022/03/03 12:01:08;;;;;;;19.75;11.88;;;4.20;1.00;;;;;;6120345;23;20194;-84
2022/03/03 12:04:01;;;;;;;22.55;11.88;;;4.30;1.00;;;;;;6126191;23;21154;-84
2022/03/03 12:06:45;;;;;;;20.27;11.20;;;4.30;1.00;;;;;;6098444;23;20195;-84
2022/03/03 12:09:20;;;;;;;21.95;11.48;;;4.30;1.00;;;;;;6102206;23;20200;-84
2022/03/03 12:11:47;;;;;;;16.20;10.65;;;4.20;1.00;;;;;;6125868;23;20191;-83
2022/03/03 12:14:35;;;;;;;19.95;11.90;;;4.20;1.00;;;;;;6124607;23;20752;-84
2022/03/03 12:17:36;;;;;;;44.15;19.58;;;4.30;1.00;;;;;;6128761;23;20207;-86
2022/03/03 12:20:32;;;;;;;17.75;9.90;;;4.30;1.00;;;;;;6143210;23;20301;-84
2022/03/03 12:23:11;;;;;;;19.67;10.90;;;4.30;1.00;;;;;;6126659;23;20192;-85
2022/03/03 12:26:04;;;;;;;21.02;11.88;;;4.20;1.00;;;;;;6137025;23;20191;-86
2022/03/03 12:28:39;;;;;;;24.10;11.85;;;4.30;1.00;;;;;;6094943;23;20204;-83
2022/03/03 12:31:20;;;;;;;19.52;9.60;;;4.40;1.00;;;;;;6127841;23;20203;-82
2022/03/03 12:34:02;;;;;;;20.05;12.00;;;4.40;1.00;;;;;;6125089;23;20263;-84
2022/03/03 12:36:34;;;;;;;12.20;8.60;;;4.50;1.00;;;;;;6128865;23;20184;-87
2022/03/03 12:39:02;;;;;;;22.23;11.70;;;4.50;1.00;;;;;;6130025;23;20230;-87
2022/03/03 12:41:43;;;;;;;18.25;10.43;;;4.50;1.00;;;;;;6136523;23;20303;-87
2022/03/03 12:44:13;;;;;;;17.77;10.95;;;4.50;1.00;;;;;;6132232;23;20212;-86
2022/03/03 12:46:47;;;;;;;18.58;10.77;;;4.50;1.00;;;;;;6106969;23;20203;-87
2022/03/03 12:49:38;;;;;;;17.75;11.38;;;4.40;1.00;;;;;;6110343;23;21183;-89
2022/03/03 12:52:05;;;;;;;18.85;12.00;;;4.50;1.00;;;;;;6115625;23;20206;-86
2022/03/03 12:54:37;;;;;;;18.23;10.88;;;4.50;1.00;;;;;;6156733;23;20239;-84
2022/03/03 12:57:11;;;;;;;18.38;10.93;;;4.60;1.00;;;;;;6154584;23;20601;-86
2022/03/03 12:59:37;;;;;;;21.75;10.93;;;4.60;1.00;;;;;;6117233;23;20207;-81
2022/03/03 13:02:04;;;;;;;19.40;11.52;;;4.60;1.00;;;;;;6125364;23;20211;-83
2022/03/03 13:04:31;;;;;;;16.58;10.88;;;4.60;1.00;;;;;;6124733;23;20215;-82
2022/03/03 13:07:07;;;;;;;20.13;10.32;;;4.60;1.00;;;;;;6127209;23;20200;-82